Time;durP1;ratioP1;P1;durP2;ratioP2;P2;SDS_P1;SDS_P2;PMS_P1;PMS_P2;Temp;Humidity;BMP_temperature;BMP_pressure;BME280_temperature;BME280_humidity;BME280_pressure;Samples;Min_cycle;Max_cycle;Signal;HPM_P1;HPM_P2
2022/11/01 00:01:43;;;;;;;2.30;2.13;;;;;;;16.75;66.55;98911.97;5013491;28;20183;-59
2022/11/01 00:04:08;;;;;;;3.17;2.35;;;;;;;16.80;66.67;98908.94;5013732;28;20198;-58
2022/11/01 00:06:35;;;;;;;3.28;2.17;;;;;;;16.82;66.36;98909.63;5013904;28;20229;-58
2022/11/01 00:09:00;;;;;;;2.50;2.20;;;;;;;16.72;66.48;98911.38;5013425;28;20171;-58
2022/11/01 00:11:26;;;;;;;3.50;2.17;;;;;;;16.68;66.58;98904.75;5013644;28;20193;-59
2022/11/01 00:13:52;;;;;;;3.22;2.30;;;;;;;16.63;66.90;98926.06;5013498;28;20636;-59
2022/11/01 00:16:19;;;;;;;5.13;2.75;;;;;;;16.60;67.80;98933.31;5013315;28;20665;-59
2022/11/01 00:18:45;;;;;;;6.32;2.60;;;;;;;16.56;68.23;98931.94;5013175;28;20567;-58
2022/11/01 00:21:12;;;;;;;5.00;2.33;;;;;;;16.52;68.76;98939.22;5013134;28;20683;-59
2022/11/01 00:23:38;;;;;;;5.10;2.50;;;;;;;16.52;69.13;98931.38;5013189;28;20178;-59
2022/11/01 00:26:04;;;;;;;6.40;3.25;;;;;;;16.55;68.33;98931.09;5013414;28;20202;-59
2022/11/01 00:28:30;;;;;;;3.05;2.85;;;;;;;16.52;68.68;98925.31;5013055;28;20197;-59
2022/11/01 00:30:57;;;;;;;6.60;3.15;;;;;;;16.45;68.97;98929.41;5013263;28;20312;-59
2022/11/01 00:33:23;;;;;;;5.68;3.40;;;;;;;16.36;69.04;98927.50;5012920;28;20190;-59
2022/11/01 00:35:49;;;;;;;5.97;3.58;;;;;;;16.23;69.71;98934.72;5013239;28;20179;-57
2022/11/01 00:38:15;;;;;;;7.28;4.03;;;;;;;15.94;70.97;98931.91;5013200;28;20189;-57
2022/11/01 00:40:42;;;;;;;8.45;3.08;;;;;;;15.85;71.99;98934.44;5012931;28;20181;-57
2022/11/01 00:43:08;;;;;;;5.45;3.38;;;;;;;15.88;71.61;98932.41;5012105;28;20675;-58
2022/11/01 00:45:33;;;;;;;4.68;3.13;;;;;;;15.83;71.66;98928.50;5012740;28;20194;-57
2022/11/01 00:47:59;;;;;;;6.07;2.78;;;;;;;15.90;70.83;98932.25;5012875;28;20175;-57
2022/11/01 00:50:24;;;;;;;3.08;2.70;;;;;;;15.83;71.31;98915.44;5013211;28;20175;-57
2022/11/01 00:52:50;;;;;;;3.08;2.60;;;;;;;15.78;71.58;98918.44;5012998;28;20171;-57
2022/11/01 00:55:16;;;;;;;5.60;2.90;;;;;;;15.68;71.33;98901.06;5012622;28;20201;-58
2022/11/01 00:57:44;;;;;;;6.72;2.80;;;;;;;15.80;71.12;98920.94;5012921;28;20171;-57
2022/11/01 01:00:11;;;;;;;6.15;2.80;;;;;;;15.72;71.24;98915.50;4995264;28;20573;-57
2022/11/01 01:02:37;;;;;;;4.45;2.40;;;;;;;15.69;71.68;98911.34;5012462;28;20175;-57
2022/11/01 01:05:03;;;;;;;3.65;2.20;;;;;;;15.75;71.42;98910.03;5012607;28;20660;-57
2022/11/01 01:07:29;;;;;;;5.75;2.47;;;;;;;15.74;71.42;98914.41;5012461;28;20208;-58
2022/11/01 01:09:54;;;;;;;5.50;2.67;;;;;;;15.84;70.57;98915.34;5012438;28;20198;-58
2022/11/01 01:12:20;;;;;;;3.05;2.40;;;;;;;15.88;70.71;98908.94;5012378;28;20178;-58
2022/11/01 01:14:45;;;;;;;3.05;2.55;;;;;;;15.88;70.21;98913.31;5012582;28;20195;-58
2022/11/01 01:17:10;;;;;;;2.90;2.20;;;;;;;15.90;70.19;98898.34;5012343;28;20741;-58
2022/11/01 01:19:36;;;;;;;4.95;2.38;;;;;;;15.93;70.15;98911.16;4995044;28;20174;-58
2022/11/01 01:22:01;;;;;;;3.63;2.65;;;;;;;15.83;70.45;98913.69;5012336;28;20552;-58
2022/11/01 01:24:27;;;;;;;3.85;2.13;;;;;;;15.70;71.39;98910.44;5012245;28;20173;-58
2022/11/01 01:26:53;;;;;;;4.65;2.53;;;;;;;15.63;71.82;98906.63;5012193;28;20182;-58
2022/11/01 01:29:18;;;;;;;5.28;2.22;;;;;;;15.54;72.44;98906.56;5012493;28;20321;-58
2022/11/01 01:31:44;;;;;;;3.63;2.50;;;;;;;15.59;72.28;98913.06;5012247;28;20309;-59
2022/11/01 01:34:09;;;;;;;3.17;2.63;;;;;;;15.50;72.84;98912.97;5012069;28;20688;-58
2022/11/01 01:36:34;;;;;;;5.75;2.70;;;;;;;15.54;72.87;98909.16;5012171;28;20182;-58
2022/11/01 01:39:00;;;;;;;4.25;2.63;;;;;;;15.60;72.43;98911.28;5012127;28;20175;-58
2022/11/01 01:44:48;;;;;;;3.08;2.40;;;;;;;15.59;72.49;98917.44;5012252;28;20713;-58
2022/11/01 01:47:20;;;;;;;4.00;2.50;;;;;;;15.61;72.10;98905.94;5012049;28;20174;-59
2022/11/01 01:49:48;;;;;;;2.28;1.80;;;;;;;15.59;72.39;98907.00;5012350;28;20186;-58
2022/11/01 01:52:14;;;;;;;3.97;2.50;;;;;;;15.60;71.96;98904.28;5011981;28;20207;-58
2022/11/01 01:54:40;;;;;;;3.35;2.30;;;;;;;15.61;71.96;98899.88;5014353;28;20226;-58
2022/11/01 01:57:07;;;;;;;5.78;2.50;;;;;;;15.57;71.54;98885.44;5015943;28;20653;-58
2022/11/01 01:59:32;;;;;;;4.65;2.60;;;;;;;15.62;71.50;98897.16;5015868;28;20171;-58
2022/11/01 02:01:59;;;;;;;5.03;2.80;;;;;;;15.69;71.36;98902.72;5016342;28;20190;-59
2022/11/01 02:04:38;;;;;;;3.67;2.47;;;;;;;15.65;71.70;98911.72;5016014;28;20266;-58
2022/11/01 02:07:04;;;;;;;2.70;2.50;;;;;;;15.53;72.29;98904.91;5015950;28;20190;-58
2022/11/01 02:09:31;;;;;;;3.50;2.20;;;;;;;15.44;72.53;98908.22;5015976;28;20562;-59
2022/11/01 02:11:57;;;;;;;8.80;2.35;;;;;;;15.39;72.77;98907.81;5015708;28;20186;-58
2022/11/01 02:14:23;;;;;;;2.70;2.50;;;;;;;15.42;72.71;98911.00;5015538;28;20195;-58
2022/11/01 02:16:55;;;;;;;6.50;2.70;;;;;;;15.43;72.82;98917.00;5015396;28;20183;-58
2022/11/01 02:19:35;;;;;;;4.32;2.38;;;;;;;15.37;72.92;98913.13;4997977;28;20659;-59
2022/11/01 02:22:06;;;;;;;6.35;2.25;;;;;;;15.34;73.30;98920.38;5015805;28;20232;-58
2022/11/01 02:24:34;;;;;;;2.88;2.30;;;;;;;15.31;73.50;98928.38;5015489;28;20666;-58
2022/11/01 02:27:16;;;;;;;3.17;2.70;;;;;;;15.24;73.69;98933.28;5015425;28;20179;-58
2022/11/01 02:29:44;;;;;;;2.53;2.33;;;;;;;15.29;73.68;98936.31;5015684;28;20205;-58
2022/11/01 02:32:27;;;;;;;3.70;2.80;;;;;;;15.33;73.24;98940.41;5015342;28;20265;-58
2022/11/01 02:35:00;;;;;;;4.63;2.75;;;;;;;15.18;73.97;98923.34;5015333;28;20240;-58
2022/11/01 02:37:36;;;;;;;4.45;2.92;;;;;;;15.32;73.52;98937.88;5015114;28;20179;-58
2022/11/01 02:40:11;;;;;;;8.15;2.20;;;;;;;15.37;72.89;98927.94;5015117;28;20163;-58
2022/11/01 02:42:43;;;;;;;5.32;2.35;;;;;;;15.39;72.65;98936.50;5015288;28;20597;-58
2022/11/01 02:45:27;;;;;;;3.65;2.60;;;;;;;15.32;73.21;98950.91;5014858;28;20202;-58
2022/11/01 02:48:00;;;;;;;4.88;2.08;;;;;;;15.30;73.70;98942.38;5015243;28;20166;-58
2022/11/01 02:50:39;;;;;;;3.70;2.60;;;;;;;15.26;73.53;98943.56;5014992;28;20206;-58
2022/11/01 02:53:05;;;;;;;3.13;2.35;;;;;;;15.28;73.39;98950.31;5015156;28;20167;-58
2022/11/01 02:55:34;;;;;;;5.72;2.42;;;;;;;15.23;73.67;98936.00;5015120;28;20189;-58
2022/11/01 02:58:05;;;;;;;5.78;2.58;;;;;;;15.15;73.62;98928.78;5015086;28;20238;-58
2022/11/01 03:00:34;;;;;;;3.45;2.40;;;;;;;15.23;73.72;98942.03;5014877;28;20190;-58
2022/11/01 03:03:25;;;;;;;2.67;2.47;;;;;;;15.25;73.41;98945.38;5014643;28;20706;-58
2022/11/01 03:05:56;;;;;;;3.58;2.50;;;;;;;15.21;73.78;98949.16;5014261;28;20163;-58
2022/11/01 03:08:29;;;;;;;4.15;2.45;;;;;;;15.25;73.65;98949.75;5014915;28;20171;-58
2022/11/01 03:11:17;;;;;;;4.78;2.50;;;;;;;15.27;73.42;98946.06;5014892;28;20543;-58
2022/11/01 03:14:04;;;;;;;3.58;2.72;;;;;;;15.18;73.74;98957.22;5014466;28;20278;-58
2022/11/01 03:16:34;;;;;;;5.25;2.78;;;;;;;15.14;73.98;98952.34;5014745;28;20163;-58
2022/11/01 03:19:31;;;;;;;5.38;2.60;;;;;;;15.11;74.20;98947.41;5014577;28;20624;-58
2022/11/01 03:22:07;;;;;;;2.80;2.33;;;;;;;15.16;73.89;98950.47;5014449;28;20191;-58
2022/11/01 03:25:05;;;;;;;4.97;2.30;;;;;;;15.10;74.37;98950.97;5014186;28;20155;-58
2022/11/01 03:27:42;;;;;;;5.70;2.60;;;;;;;15.13;74.09;98953.31;5014490;28;20636;-59
2022/11/01 03:30:12;;;;;;;2.92;2.35;;;;;;;15.09;74.15;98949.28;5014539;28;20174;-59
2022/11/01 03:32:52;;;;;;;4.47;2.72;;;;;;;15.05;74.50;98947.88;5014147;28;20592;-59
2022/11/01 03:35:25;;;;;;;2.55;1.80;;;;;;;15.02;74.70;98948.09;5014502;28;20656;-59
2022/11/01 03:37:56;;;;;;;6.00;2.33;;;;;;;15.01;74.74;98954.25;5014094;28;20155;-59
2022/11/01 03:40:24;;;;;;;6.03;2.15;;;;;;;15.04;74.79;98960.06;5014318;28;20520;-59
2022/11/01 03:42:53;;;;;;;2.78;2.00;;;;;;;15.09;74.71;98950.13;5013891;28;20178;-59
2022/11/01 03:45:23;;;;;;;2.35;2.15;;;;;;;14.99;74.92;98937.94;5013816;28;20201;-59
2022/11/01 03:47:49;;;;;;;3.75;2.10;;;;;;;15.07;74.92;98946.81;5014126;28;20596;-59
2022/11/01 03:50:20;;;;;;;6.10;2.45;;;;;;;15.06;74.86;98939.94;5014068;28;20213;-59
2022/11/01 03:52:46;;;;;;;2.20;2.00;;;;;;;15.05;75.11;98943.47;5014003;28;20171;-59
2022/11/01 03:55:19;;;;;;;2.85;2.30;;;;;;;15.07;75.12;98945.97;5013949;28;20199;-59
2022/11/01 03:57:53;;;;;;;4.90;2.33;;;;;;;14.88;75.70;98933.53;4996178;28;20540;-59
2022/11/01 04:00:23;;;;;;;8.32;3.25;;;;;;;14.85;76.62;98941.59;5013581;28;20667;-59
2022/11/01 04:02:50;;;;;;;5.30;3.45;;;;;;;14.72;77.88;98946.09;5013588;28;20200;-59
2022/11/01 04:05:17;;;;;;;6.95;3.38;;;;;;;14.68;78.35;98944.66;5013586;28;20593;-58
2022/11/01 04:07:43;;;;;;;7.22;3.55;;;;;;;14.61;78.81;98942.66;5013489;28;20206;-58
2022/11/01 04:10:10;;;;;;;7.63;3.60;;;;;;;14.56;79.58;98944.78;5013646;28;20209;-58
2022/11/01 04:12:35;;;;;;;7.93;4.05;;;;;;;14.54;79.57;98952.72;5013462;28;20252;-58
2022/11/01 04:20:33;;;;;;;9.23;3.95;;;;;;;14.77;78.33;98958.78;5013839;28;20645;-57
2022/11/01 04:23:00;;;;;;;7.93;3.83;;;;;;;14.83;78.23;98956.53;5013252;28;20562;-57
2022/11/01 04:25:26;;;;;;;8.30;3.40;;;;;;;14.70;78.84;98960.19;5013228;28;20175;-57
2022/11/01 04:27:51;;;;;;;8.57;3.95;;;;;;;14.73;78.71;98962.53;5013612;28;20256;-57
2022/11/01 04:30:17;;;;;;;8.00;3.88;;;;;;;14.70;78.80;98957.59;5013084;28;20584;-58
2022/11/01 04:32:43;;;;;;;7.03;3.45;;;;;;;14.62;79.31;98950.34;5013070;28;20229;-58
2022/11/01 04:35:12;;;;;;;7.72;3.83;;;;;;;14.45;80.55;98949.97;5012917;28;20231;-57
2022/11/01 04:37:38;;;;;;;6.97;4.00;;;;;;;14.53;79.97;98942.41;5013079;28;20282;-57
2022/11/01 04:40:07;;;;;;;8.23;4.30;;;;;;;14.64;79.50;98951.06;5012851;28;20699;-57
2022/11/01 04:42:36;;;;;;;9.65;4.30;;;;;;;14.64;79.65;98950.25;5013065;28;20206;-57
2022/11/01 04:45:03;;;;;;;6.97;4.35;;;;;;;14.69;79.33;98958.53;5012734;28;20191;-58
2022/11/01 04:47:29;;;;;;;20.33;4.53;;;;;;;14.37;81.43;98957.53;5012956;28;20179;-58
2022/11/01 04:49:54;;;;;;;9.70;4.22;;;;;;;14.19;82.81;98959.75;5012925;28;20177;-58
2022/11/01 04:52:20;;;;;;;12.70;5.43;;;;;;;14.17;82.62;98955.56;5012760;28;20202;-58
2022/11/01 04:54:45;;;;;;;12.15;5.78;;;;;;;14.28;82.07;98960.84;5012670;28;20302;-58
2022/11/01 04:57:23;;;;;;;16.10;5.32;;;;;;;14.36;81.09;98959.28;5012822;28;20182;-58
2022/11/01 04:59:52;;;;;;;9.32;4.95;;;;;;;14.42;80.99;98958.84;5012905;28;20250;-58
2022/11/01 05:02:19;;;;;;;13.27;5.32;;;;;;;14.41;81.27;98956.38;5012535;28;20171;-58
2022/11/01 05:04:44;;;;;;;8.98;4.63;;;;;;;14.17;81.73;98952.97;5012530;28;20183;-58
2022/11/01 05:07:10;;;;;;;11.48;4.60;;;;;;;14.28;81.99;98971.25;5012482;28;20171;-58
2022/11/01 05:09:36;;;;;;;7.47;4.63;;;;;;;14.20;81.72;98951.00;5012741;28;20265;-58
2022/11/01 05:12:01;;;;;;;13.05;4.85;;;;;;;14.28;81.47;98963.44;4994925;28;20175;-58
2022/11/01 05:14:27;;;;;;;12.65;5.22;;;;;;;14.21;82.33;98980.44;5012274;28;20601;-58
2022/11/01 05:16:56;;;;;;;13.50;4.78;;;;;;;14.28;81.95;98976.47;5012656;28;20179;-58
2022/11/01 05:19:22;;;;;;;17.00;5.03;;;;;;;14.32;81.56;98980.47;5012402;28;20660;-59
2022/11/01 05:21:48;;;;;;;10.07;5.07;;;;;;;14.23;82.47;98981.16;5012307;28;20236;-57
2022/11/01 05:24:13;;;;;;;17.77;5.30;;;;;;;14.23;82.83;98983.78;5012340;28;20171;-58
2022/11/01 05:26:39;;;;;;;10.43;4.45;;;;;;;14.21;83.01;98991.69;5012774;28;20174;-58
2022/11/01 05:29:04;;;;;;;11.75;4.60;;;;;;;14.24;83.51;98990.63;5011921;28;20179;-58
2022/11/01 05:31:30;;;;;;;8.27;5.43;;;;;;;14.24;83.61;98990.63;5012183;28;20171;-58
2022/11/01 05:33:55;;;;;;;10.77;4.45;;;;;;;14.32;83.30;98990.88;5012060;28;20194;-59
2022/11/01 05:36:21;;;;;;;8.63;4.72;;;;;;;14.40;82.78;98991.16;5012179;28;20178;-58
2022/11/01 05:38:46;;;;;;;10.48;4.43;;;;;;;14.40;82.98;98988.56;5012164;28;20675;-58
2022/11/01 05:41:11;;;;;;;5.85;3.10;;;;;;;14.58;81.73;98994.97;5012092;28;20665;-58
2022/11/01 05:43:37;;;;;;;3.50;2.67;;;;;;;14.70;79.79;99004.47;5012231;28;20250;-58
2022/11/01 05:46:04;;;;;;;2.30;2.10;;;;;;;14.87;78.06;98996.22;5012279;28;20234;-58
2022/11/01 05:48:29;;;;;;;2.33;2.10;;;;;;;14.98;76.84;98996.22;5024192;28;20236;-60
2022/11/01 05:50:55;;;;;;;4.40;2.50;;;;;;;15.01;75.94;98988.16;5031923;28;20175;-58
2022/11/01 05:53:20;;;;;;;5.72;2.42;;;;;;;15.02;76.13;98995.00;5031572;28;20651;-58
2022/11/01 05:55:46;;;;;;;3.30;2.00;;;;;;;15.02;76.29;99006.28;5031727;28;20170;-58
2022/11/01 05:58:11;;;;;;;3.92;2.40;;;;;;;15.05;76.92;99002.63;5031404;28;20659;-58
2022/11/01 06:00:37;;;;;;;4.70;2.20;;;;;;;15.06;76.45;99004.25;5031486;28;20205;-58
2022/11/01 06:03:03;;;;;;;4.38;2.10;;;;;;;15.16;75.86;98998.22;5031815;28;20209;-58
2022/11/01 06:05:29;;;;;;;2.90;1.90;;;;;;;15.29;74.84;99004.13;5031648;28;20170;-58
2022/11/01 06:07:54;;;;;;;3.83;3.00;;;;;;;15.31;74.51;99004.00;5031435;28;20577;-58
2022/11/01 06:10:20;;;;;;;6.25;2.13;;;;;;;15.36;74.50;99009.72;5031603;28;20248;-58
2022/11/01 06:12:45;;;;;;;3.58;2.50;;;;;;;15.46;73.80;99001.06;5031532;28;20185;-58
2022/11/01 06:15:11;;;;;;;4.72;1.92;;;;;;;15.55;73.56;99005.56;5031470;28;20191;-58
2022/11/01 06:17:36;;;;;;;4.18;2.08;;;;;;;15.58;73.20;99007.91;5031561;28;20175;-58
2022/11/01 06:20:02;;;;;;;3.75;1.90;;;;;;;15.53;73.70;99017.91;5031797;28;20565;-58
2022/11/01 06:22:27;;;;;;;3.13;2.22;;;;;;;15.63;73.29;99013.59;5031453;28;20175;-59
2022/11/01 06:24:53;;;;;;;2.47;2.10;;;;;;;15.73;72.93;99019.75;5031743;28;20533;-58
2022/11/01 06:27:18;;;;;;;3.90;2.17;;;;;;;15.85;72.07;99018.75;5031727;28;20562;-59
2022/11/01 06:29:44;;;;;;;4.90;2.00;;;;;;;15.94;71.52;99022.41;5031316;28;20201;-59
2022/11/01 06:32:09;;;;;;;4.10;2.40;;;;;;;15.98;71.98;99021.22;5013641;28;20572;-58
2022/11/01 06:34:34;;;;;;;5.05;2.67;;;;;;;15.97;71.40;99022.19;5031152;28;20762;-58
2022/11/01 06:37:01;;;;;;;7.10;2.13;;;;;;;16.03;71.23;99006.03;5031386;28;20177;-59
2022/11/01 06:39:26;;;;;;;4.60;2.22;;;;;;;16.30;70.05;99014.22;5030238;28;20615;-59
2022/11/01 06:41:52;;;;;;;5.90;2.30;;;;;;;16.38;69.04;99012.66;5033280;28;20236;-59
2022/11/01 06:44:17;;;;;;;2.78;1.80;;;;;;;16.45;68.68;99026.84;5034589;28;20268;-59
2022/11/01 06:46:43;;;;;;;5.53;3.33;;;;;;;16.46;68.63;99025.09;5034629;28;20180;-59
2022/11/01 06:49:08;;;;;;;6.45;2.78;;;;;;;16.52;68.88;99022.81;5015087;28;20231;-59
2022/11/01 06:51:33;;;;;;;15.38;4.70;;;;;;;16.57;69.37;99025.03;5034307;28;20644;-59
2022/11/01 06:53:59;;;;;;;13.77;5.22;;;;;;;16.55;70.73;99019.94;5034888;28;20366;-59
2022/11/01 06:56:24;;;;;;;7.20;2.40;;;;;;;16.69;68.29;99016.16;5034665;28;20170;-59
2022/11/01 06:58:50;;;;;;;3.97;2.83;;;;;;;16.76;67.93;99018.16;5018585;28;20294;-59
2022/11/01 07:01:21;;;;;;;4.93;2.13;;;;;;;16.75;67.61;99005.19;5014991;28;20174;-59
2022/11/01 07:03:51;;;;;;;4.40;1.92;;;;;;;16.91;66.92;99018.66;5012851;28;20194;-59
2022/11/01 07:06:17;;;;;;;4.25;2.80;;;;;;;16.94;67.34;99020.97;5014626;28;20185;-59
2022/11/01 07:08:42;;;;;;;6.95;3.53;;;;;;;16.98;67.19;99001.47;5013627;28;20182;-59
2022/11/01 07:11:08;;;;;;;21.17;5.32;;;;;;;17.00;68.54;99004.78;5014661;28;20651;-59
2022/11/01 07:13:35;;;;;;;9.30;4.07;;;;;;;17.16;68.24;99016.44;5014725;28;20249;-59
2022/11/01 07:16:02;;;;;;;10.85;5.07;;;;;;;17.20;68.50;99003.91;5014740;28;20198;-59
2022/11/01 07:18:29;;;;;;;11.30;3.75;;;;;;;17.35;67.00;99015.66;5014430;28;20186;-58
2022/11/01 07:20:55;;;;;;;15.13;5.65;;;;;;;17.39;67.76;99019.72;5014661;28;20185;-59
2022/11/01 07:23:20;;;;;;;21.20;5.57;;;;;;;17.30;68.26;99007.38;5014614;28;20186;-59
2022/11/01 07:25:52;;;;;;;20.90;5.15;;;;;;;17.41;68.48;99025.63;5014442;28;20167;-59
2022/11/01 07:28:18;;;;;;;19.20;6.05;;;;;;;17.45;68.22;99019.19;5014270;28;20175;-59
2022/11/01 07:30:47;;;;;;;15.57;5.15;;;;;;;17.49;68.03;99028.44;5014228;28;20170;-59
2022/11/01 07:33:12;;;;;;;13.98;5.75;;;;;;;17.52;67.97;99030.75;5014065;28;20697;-59
2022/11/01 07:35:38;;;;;;;10.80;5.32;;;;;;;17.59;68.34;99034.50;5014113;28;20438;-59
2022/11/01 07:38:03;;;;;;;11.95;4.55;;;;;;;17.70;66.80;99031.78;5014116;28;20174;-59
2022/11/01 07:40:29;;;;;;;8.55;4.80;;;;;;;17.78;67.14;99039.81;5014249;28;20182;-59
2022/11/01 07:42:57;;;;;;;13.32;4.80;;;;;;;17.89;66.48;99029.22;5013919;28;20256;-58
2022/11/01 07:45:23;;;;;;;14.38;4.97;;;;;;;17.98;66.29;99037.09;5014182;28;20191;-59
2022/11/01 07:47:49;;;;;;;10.43;4.80;;;;;;;18.08;65.51;99031.84;5013754;28;20228;-59
2022/11/01 07:50:15;;;;;;;10.55;4.68;;;;;;;18.14;65.38;99026.88;4996074;28;20257;-59
2022/11/01 07:52:40;;;;;;;16.25;5.28;;;;;;;18.17;65.16;99028.41;5013650;28;20261;-59
2022/11/01 07:55:07;;;;;;;18.17;5.10;;;;;;;18.26;64.68;99024.97;5013446;28;20206;-56
2022/11/01 07:57:41;;;;;;;10.77;4.97;;;;;;;18.38;64.52;99031.75;5013950;28;20178;-57
2022/11/01 08:00:10;;;;;;;20.15;5.45;;;;;;;18.45;64.30;99030.22;5014010;28;20162;-57
2022/11/01 08:02:36;;;;;;;12.52;5.28;;;;;;;18.52;63.79;99028.69;5013691;28;20171;-58
2022/11/01 08:05:01;;;;;;;14.05;4.97;;;;;;;18.64;63.39;99030.19;5013137;28;20224;-58
2022/11/01 08:07:27;;;;;;;12.27;5.05;;;;;;;18.69;63.06;99025.38;5012547;28;20178;-58
2022/11/01 08:09:52;;;;;;;15.30;4.97;;;;;;;18.76;62.66;99023.84;5011938;28;20269;-58
2022/11/01 08:12:18;;;;;;;17.20;4.68;;;;;;;18.83;62.09;99030.19;5011325;28;20174;-58
2022/11/01 08:14:43;;;;;;;11.63;5.10;;;;;;;18.90;61.65;99024.25;5012030;28;20218;-58
2022/11/01 08:17:08;;;;;;;12.90;4.65;;;;;;;19.01;61.63;99031.09;5012274;28;20325;-58
2022/11/01 08:19:34;;;;;;;15.27;4.80;;;;;;;19.06;60.94;99026.25;5012909;28;20226;-58
2022/11/01 08:21:59;;;;;;;17.92;4.55;;;;;;;19.14;59.42;99018.47;5013233;28;20182;-58
2022/11/01 08:24:26;;;;;;;14.00;4.00;;;;;;;19.26;59.70;99027.84;5013314;28;20179;-58
2022/11/01 08:26:52;;;;;;;10.63;4.25;;;;;;;19.33;59.35;99028.94;5012168;28;20191;-58
2022/11/01 08:29:18;;;;;;;10.50;3.97;;;;;;;19.36;59.39;99028.66;5013381;28;20181;-58
2022/11/01 08:31:44;;;;;;;12.00;4.18;;;;;;;19.40;59.39;99020.34;5012931;28;20182;-58
2022/11/01 08:34:09;;;;;;;14.70;4.40;;;;;;;19.46;57.97;99024.19;5012617;28;20228;-59
2022/11/01 08:36:35;;;;;;;16.33;4.72;;;;;;;19.50;58.52;99015.88;5012923;28;20233;-58
2022/11/01 08:39:00;;;;;;;15.80;4.35;;;;;;;19.55;58.66;99018.06;5013270;28;20562;-58
2022/11/01 08:41:27;;;;;;;9.77;3.33;;;;;;;19.57;58.11;99010.84;5012930;28;20178;-58
2022/11/01 08:43:53;;;;;;;11.35;3.50;;;;;;;19.68;57.27;99005.41;4995006;28;20245;-58
2022/11/01 08:46:19;;;;;;;8.82;3.50;;;;;;;19.76;57.50;99011.56;5012949;28;20182;-57
2022/11/01 08:48:46;;;;;;;7.82;3.75;;;;;;;19.82;57.23;99010.16;5013107;28;20181;-59
2022/11/01 08:51:12;;;;;;;10.63;3.70;;;;;;;19.94;57.14;99011.59;5012679;28;20189;-59
2022/11/01 08:53:37;;;;;;;10.25;3.40;;;;;;;19.98;56.73;99018.19;5012663;28;20194;-59
2022/11/01 08:56:03;;;;;;;13.75;3.63;;;;;;;19.89;56.59;99008.59;5012581;28;20202;-59
2022/11/01 08:58:28;;;;;;;6.55;3.63;;;;;;;19.91;56.28;99006.63;5012526;28;20181;-59
2022/11/01 09:00:53;;;;;;;9.85;3.47;;;;;;;19.96;56.12;99001.75;5012488;28;20640;-59
2022/11/01 09:03:19;;;;;;;9.20;4.30;;;;;;;19.87;56.05;98997.41;5012103;28;20269;-59
2022/11/01 09:05:44;;;;;;;12.07;4.20;;;;;;;20.03;56.26;98998.41;5012164;28;20183;-59
2022/11/01 09:08:10;;;;;;;11.05;4.13;;;;;;;20.14;55.97;99007.88;5012579;28;20167;-59
2022/11/01 09:10:35;;;;;;;14.35;3.58;;;;;;;20.23;55.93;99005.16;5011982;28;20273;-58
2022/11/01 09:13:01;;;;;;;15.00;3.83;;;;;;;20.30;55.92;99003.63;5011091;28;20580;-59
2022/11/01 09:15:26;;;;;;;13.45;4.22;;;;;;;20.37;55.87;99004.66;5011312;28;20674;-60
2022/11/01 09:21:15;;;;;;;11.65;3.45;;;;;;;20.56;54.91;99007.09;5011579;28;20627;-57
2022/11/01 09:23:41;;;;;;;14.68;4.22;;;;;;;20.61;54.67;98999.59;5011564;28;20220;-58
2022/11/01 09:26:09;;;;;;;30.80;20.98;;;;;;;20.66;54.59;98999.94;5015811;28;20185;-57
2022/11/01 09:28:35;;;;;;;11.13;6.72;;;;;;;20.72;54.17;98993.22;5022508;28;20181;-57
2022/11/01 09:31:07;;;;;;;10.73;5.03;;;;;;;20.77;54.60;98998.88;5025662;28;20186;-58
2022/11/01 09:33:33;;;;;;;16.00;4.03;;;;;;;20.78;53.84;98985.56;5029118;28;20730;-56
2022/11/01 09:35:58;;;;;;;9.30;4.38;;;;;;;20.84;53.92;98994.63;5041160;28;20275;-57
2022/11/01 09:38:25;;;;;;;10.07;3.63;;;;;;;20.94;53.29;98995.38;5050879;28;20569;-57
2022/11/01 09:41:07;;;;;;;9.27;4.28;;;;;;;20.95;53.44;98989.97;5048333;28;20251;-57
2022/11/01 09:43:36;;;;;;;17.23;4.97;;;;;;;20.98;53.53;98981.75;5028851;28;20197;-56
2022/11/01 09:46:04;;;;;;;10.35;4.55;;;;;;;20.99;53.42;98966.81;5030756;28;20639;-56
2022/11/01 09:48:31;;;;;;;11.00;4.53;;;;;;;21.06;53.70;98983.63;5029484;28;20272;-56
2022/11/01 09:51:03;;;;;;;10.30;4.22;;;;;;;21.16;52.58;98977.25;5029612;28;20257;-56
2022/11/01 09:53:29;;;;;;;9.55;3.83;;;;;;;21.21;52.40;98968.88;5030066;28;20196;-56
2022/11/01 09:56:09;;;;;;;14.77;4.65;;;;;;;21.25;52.86;98973.69;5029948;28;20185;-56
2022/11/01 09:58:42;;;;;;;13.98;4.70;;;;;;;21.26;52.85;98970.06;5030261;28;20543;-56
2022/11/01 10:01:19;;;;;;;13.88;4.70;;;;;;;21.33;52.70;98965.81;5030267;28;20220;-56
2022/11/01 10:04:15;;;;;;;13.02;4.55;;;;;;;21.38;52.56;98962.72;5031851;28;20181;-56
2022/11/01 10:07:13;;;;;;;10.10;3.90;;;;;;;21.40;52.43;98960.72;5031863;28;20172;-56
2022/11/01 10:09:48;;;;;;;10.80;3.72;;;;;;;21.42;52.72;98956.13;5001254;28;20220;-56
2022/11/01 10:12:22;;;;;;;17.65;4.47;;;;;;;21.46;52.78;98963.56;5031772;28;20169;-57
2022/11/01 10:15:18;;;;;;;14.98;4.20;;;;;;;21.53;52.42;98955.84;5032165;28;20189;-56
2022/11/01 10:17:54;;;;;;;9.40;3.67;;;;;;;21.58;52.27;98956.19;5035259;28;20166;-56
2022/11/01 10:20:32;;;;;;;10.43;4.20;;;;;;;21.62;51.86;98945.16;5035311;28;20189;-56
2022/11/01 10:22:59;;;;;;;8.30;4.57;;;;;;;21.81;51.72;98949.34;5034203;28;20558;-56
2022/11/01 10:25:32;;;;;;;14.68;5.40;;;;;;;21.94;51.20;98939.16;5033350;28;20180;-56
2022/11/01 10:28:19;;;;;;;12.05;5.00;;;;;;;22.07;51.23;98944.75;5035068;28;20593;-56
2022/11/01 10:30:54;;;;;;;11.80;5.53;;;;;;;22.25;50.51;98940.97;5033739;28;20668;-56
2022/11/01 10:33:42;;;;;;;11.05;5.15;;;;;;;22.38;50.51;98938.66;5035115;28;20564;-56
2022/11/01 10:36:20;;;;;;;7.90;5.53;;;;;;;22.55;50.29;98940.31;5035315;28;20166;-56
2022/11/01 10:38:47;;;;;;;14.07;6.10;;;;;;;22.62;49.70;98932.56;5035368;28;20173;-56
2022/11/01 10:41:21;;;;;;;9.02;5.35;;;;;;;22.76;49.38;98939.78;5035273;28;20212;-56
2022/11/01 10:43:52;;;;;;;10.40;5.70;;;;;;;22.80;49.86;98918.19;5034892;28;20216;-56
2022/11/01 10:46:22;;;;;;;17.15;5.75;;;;;;;22.94;49.62;98924.56;5035103;28;20166;-56
2022/11/01 10:48:51;;;;;;;10.30;5.80;;;;;;;23.00;49.55;98915.94;5034851;28;20622;-57
2022/11/01 10:51:20;;;;;;;10.68;6.53;;;;;;;23.08;49.29;98922.03;5034852;28;20166;-57
2022/11/01 10:53:52;;;;;;;11.80;6.22;;;;;;;23.17;48.98;98922.84;5034657;28;20213;-56
2022/11/01 10:56:30;;;;;;;13.27;5.85;;;;;;;23.24;49.22;98911.44;5034913;28;20170;-56
2022/11/01 10:59:05;;;;;;;9.10;6.43;;;;;;;23.34;49.10;98908.56;5034755;28;20158;-56
2022/11/01 11:01:37;;;;;;;13.52;6.30;;;;;;;23.42;48.28;98898.00;5034572;28;20215;-57
2022/11/01 11:04:06;;;;;;;11.07;6.50;;;;;;;23.50;48.03;98901.41;5034811;28;20154;-56
2022/11/01 11:06:35;;;;;;;10.25;6.55;;;;;;;23.51;47.90;98881.91;5016813;28;20189;-56
2022/11/01 11:09:03;;;;;;;11.57;6.55;;;;;;;23.63;47.32;98895.53;5034401;28;20185;-56
2022/11/01 11:11:37;;;;;;;10.70;5.75;;;;;;;23.70;47.56;98894.66;5034694;28;20182;-56
2022/11/01 11:14:08;;;;;;;9.63;5.65;;;;;;;23.74;47.55;98885.38;5034605;28;20193;-56
2022/11/01 11:16:45;;;;;;;9.32;5.22;;;;;;;23.82;47.08;98874.75;5034471;28;20669;-56
2022/11/01 11:19:21;;;;;;;11.00;4.68;;;;;;;23.89;47.45;98880.19;5034412;28;20169;-56
2022/11/01 11:21:49;;;;;;;11.40;7.25;;;;;;;23.92;47.50;98883.28;5034516;28;20610;-57
2022/11/01 11:24:29;;;;;;;10.35;5.28;;;;;;;23.95;47.41;98874.19;5034095;28;20173;-56
2022/11/01 11:26:55;;;;;;;9.05;4.45;;;;;;;23.96;46.64;98873.19;5033879;28;20215;-56
2022/11/01 11:29:38;;;;;;;11.80;4.32;;;;;;;23.95;47.10;98869.72;5034130;28;20178;-57
2022/11/01 11:32:11;;;;;;;11.40;4.55;;;;;;;23.96;46.81;98870.53;5016359;28;20165;-57
2022/11/01 11:34:37;;;;;;;9.85;4.13;;;;;;;23.94;46.73;98875.19;5034023;28;20275;-58
2022/11/01 11:37:05;;;;;;;12.40;4.13;;;;;;;23.95;46.97;98860.97;5034217;28;20174;-57
2022/11/01 11:39:37;;;;;;;8.73;3.95;;;;;;;23.96;46.44;98863.41;5033976;28;20310;-57
2022/11/01 11:42:18;;;;;;;9.45;4.25;;;;;;;23.92;46.18;98858.66;5049274;28;20256;-57
2022/11/01 11:44:53;;;;;;;7.82;4.10;;;;;;;23.92;46.16;98856.84;5033672;28;20222;-57
2022/11/01 11:47:33;;;;;;;10.88;4.00;;;;;;;23.86;46.57;98855.69;5033882;28;20227;-58
2022/11/01 11:49:59;;;;;;;9.18;3.92;;;;;;;23.80;47.13;98845.84;5033911;28;20158;-57